Time;durP1;ratioP1;P1;durP2;ratioP2;P2;SDS_P1;SDS_P2;PMS_P1;PMS_P2;Temp;Humidity;BMP_temperature;BMP_pressure;BME280_temperature;BME280_humidity;BME280_pressure;Samples;Min_cycle;Max_cycle;Signal;HPM_P1;HPM_P2
2021/09/04 00:01:01;;;;;;;4.70;1.90;;;;;;;13.73;57.36;99078.91;26973;1225;3028424;-65
2021/09/04 00:03:31;;;;;;;4.80;1.80;;;;;;;13.76;57.15;99077.05;26943;1222;3049506;-64
2021/09/04 00:06:00;;;;;;;4.60;1.70;;;;;;;13.68;57.65;99078.23;26937;1221;3026459;-64
2021/09/04 00:08:30;;;;;;;5.70;1.80;;;;;;;13.64;57.56;99080.29;26922;1224;3027017;-64
2021/09/04 00:11:03;;;;;;;6.50;2.00;;;;;;;13.59;58.25;99073.80;26956;1222;3051913;-63
2021/09/04 00:13:53;;;;;;;5.00;1.90;;;;;;;13.56;58.30;99072.83;26920;1225;3051306;-64
2021/09/04 00:16:23;;;;;;;6.50;1.80;;;;;;;13.46;58.55;99076.06;26928;1222;3025944;-65
2021/09/04 00:18:56;;;;;;;6.10;2.00;;;;;;;13.50;58.32;99076.80;26915;1229;3049078;-64
2021/09/04 00:21:25;;;;;;;3.50;1.90;;;;;;;13.43;58.97;99076.01;27078;1222;3025994;-65
2021/09/04 00:23:54;;;;;;;7.20;1.90;;;;;;;13.46;58.64;99076.27;26996;1221;3057446;-64
2021/09/04 00:26:24;;;;;;;3.90;1.70;;;;;;;13.51;58.39;99074.95;26979;1225;3026205;-65
2021/09/04 00:28:54;;;;;;;6.40;2.20;;;;;;;13.45;58.57;99074.23;26959;1222;3051435;-66
2021/09/04 00:31:24;;;;;;;4.50;1.70;;;;;;;13.33;58.91;99072.85;26882;1221;3027000;-64
2021/09/04 00:33:53;;;;;;;5.40;1.90;;;;;;;13.30;59.03;99075.20;26999;1222;3025831;-66
2021/09/04 00:36:22;;;;;;;5.10;2.00;;;;;;;13.25;59.50;99072.41;26936;1224;3054337;-66
2021/09/04 00:38:51;;;;;;;7.10;2.10;;;;;;;13.30;59.28;99070.27;26920;1228;3027235;-69
2021/09/04 00:41:21;;;;;;;5.80;1.90;;;;;;;13.27;59.33;99068.58;26943;1225;3026095;-70
2021/09/04 00:43:51;;;;;;;5.90;2.20;;;;;;;13.17;59.90;99071.31;26917;1219;3027326;-68
2021/09/04 00:46:20;;;;;;;4.50;2.10;;;;;;;13.15;59.79;99067.56;27016;1224;3025695;-63
2021/09/04 00:48:49;;;;;;;5.80;2.00;;;;;;;13.09;60.18;99064.88;26953;1229;3048835;-65
2021/09/04 00:51:18;;;;;;;3.70;1.80;;;;;;;13.12;60.07;99068.14;26963;1225;3027181;-65
2021/09/04 00:53:47;;;;;;;6.40;2.00;;;;;;;13.11;59.88;99064.66;26993;1221;3056627;-67
2021/09/04 00:56:17;;;;;;;7.50;1.80;;;;;;;13.06;60.26;99068.06;26899;1222;3026454;-63
2021/09/04 00:58:47;;;;;;;5.20;1.80;;;;;;;12.96;60.42;99061.61;27028;1226;3026565;-67
2021/09/04 01:01:17;;;;;;;6.10;2.10;;;;;;;12.91;60.87;99066.20;26893;1225;3028527;-65
2021/09/04 01:03:48;;;;;;;5.50;2.50;;;;;;;12.92;60.85;99064.44;26924;1225;3027105;-65
2021/09/04 01:06:17;;;;;;;6.60;2.30;;;;;;;12.83;61.36;99062.81;26909;1222;3026552;-64
2021/09/04 01:08:48;;;;;;;6.40;2.30;;;;;;;12.75;61.61;99060.77;27048;1222;3026220;-64
2021/09/04 01:11:18;;;;;;;5.30;1.90;;;;;;;12.81;61.13;99059.12;26914;1225;3027104;-65
2021/09/04 01:13:48;;;;;;;5.30;2.40;;;;;;;12.79;61.56;99060.65;26977;1225;3026478;-65
2021/09/04 01:16:16;;;;;;;5.50;2.20;;;;;;;12.71;61.63;99048.91;26932;1219;3026689;-64
2021/09/04 01:18:46;;;;;;;7.10;2.00;;;;;;;12.71;61.77;99044.73;27035;1225;3051114;-64
2021/09/04 01:21:15;;;;;;;6.20;2.30;;;;;;;12.72;61.98;99046.41;26927;1221;3026121;-65
2021/09/04 01:23:45;;;;;;;5.50;1.90;;;;;;;12.74;61.82;99036.42;26999;1221;3051894;-64
2021/09/04 01:26:13;;;;;;;5.00;2.10;;;;;;;12.73;61.83;99041.27;26966;1228;3026141;-66
2021/09/04 01:28:43;;;;;;;5.90;1.80;;;;;;;12.61;62.41;99040.41;26919;1224;3051107;-64
2021/09/04 01:31:12;;;;;;;5.70;2.20;;;;;;;12.57;62.51;99041.00;26998;1222;3026400;-65
2021/09/04 01:33:45;;;;;;;12.00;2.10;;;;;;;12.66;61.99;99044.79;26927;1225;3068028;-66
2021/09/04 01:36:29;;;;;;;4.60;2.00;;;;;;;12.57;62.68;99039.98;26931;1229;3026039;-65
2021/09/04 01:38:58;;;;;;;4.40;2.00;;;;;;;12.52;62.91;99030.52;26895;1225;3054194;-67
2021/09/04 01:41:27;;;;;;;6.20;1.80;;;;;;;12.49;62.93;99033.95;26942;1229;3026174;-67
2021/09/04 01:43:56;;;;;;;5.00;2.30;;;;;;;12.46;63.07;99036.80;27014;1225;3026086;-64
2021/09/04 01:46:26;;;;;;;5.80;1.70;;;;;;;12.40;63.64;99033.70;26963;1221;3026138;-64
2021/09/04 01:48:57;;;;;;;4.00;2.20;;;;;;;13.27;62.00;99023.06;26954;1225;3051185;-64
2021/09/04 01:51:26;;;;;;;9.50;2.30;;;;;;;13.31;61.31;99026.77;27005;1223;3027371;-65
2021/09/04 01:53:57;;;;;;;6.50;2.40;;;;;;;13.50;60.65;99028.29;26973;1225;3025718;-66
2021/09/04 01:56:26;;;;;;;4.20;2.20;;;;;;;13.42;60.51;99031.35;26935;1228;3026192;-65
2021/09/04 01:58:55;;;;;;;5.60;2.50;;;;;;;13.10;61.28;99032.45;26985;1221;3055425;-66
2021/09/04 02:01:24;;;;;;;5.90;1.90;;;;;;;13.00;61.56;99030.02;26894;1222;3025646;-66
2021/09/04 02:03:54;;;;;;;5.60;2.60;;;;;;;12.76;62.28;99021.17;26967;1221;3053860;-64
2021/09/04 02:06:23;;;;;;;5.60;2.00;;;;;;;12.64;62.79;99028.73;26964;1224;3025943;-65
2021/09/04 02:08:52;;;;;;;5.30;2.20;;;;;;;12.52;63.17;99020.88;26903;1225;3027851;-64
2021/09/04 02:11:22;;;;;;;5.30;2.50;;;;;;;12.46;63.63;99018.31;26982;1228;3052000;-65
2021/09/04 02:13:52;;;;;;;7.00;2.70;;;;;;;12.33;64.10;99026.70;26945;1225;3026100;-67
2021/09/04 02:16:22;;;;;;;6.00;2.50;;;;;;;12.28;64.18;99018.48;26923;1221;3027125;-64
2021/09/04 02:18:52;;;;;;;4.30;1.70;;;;;;;12.27;64.65;99019.22;26945;1227;3026447;-63
2021/09/04 02:21:22;;;;;;;6.60;2.00;;;;;;;13.06;62.70;99023.78;26979;1220;3026285;-65
2021/09/04 02:23:51;;;;;;;8.00;2.60;;;;;;;13.27;61.52;99015.63;26901;1220;3026666;-65
2021/09/04 02:26:21;;;;;;;5.20;2.20;;;;;;;13.01;62.11;99012.52;26964;1223;3026155;-66
2021/09/04 02:28:52;;;;;;;9.10;2.50;;;;;;;13.06;61.72;99011.14;27002;1222;3026792;-64
2021/09/04 02:31:24;;;;;;;9.40;2.50;;;;;;;12.74;62.92;99012.38;26924;1221;3025845;-63
2021/09/04 02:33:54;;;;;;;8.80;2.60;;;;;;;12.55;63.43;99013.62;26912;1225;3026553;-63
2021/09/04 02:36:23;;;;;;;5.40;2.20;;;;;;;12.53;63.71;99010.80;26954;1221;3026151;-64
2021/09/04 02:38:52;;;;;;;7.50;2.50;;;;;;;12.42;64.06;99004.96;27070;1222;3026949;-65
2021/09/04 02:41:21;;;;;;;7.70;2.60;;;;;;;12.33;64.52;99007.56;26964;1224;3056561;-64
2021/09/04 02:43:51;;;;;;;4.80;2.00;;;;;;;12.44;64.51;99014.79;26931;1222;3028695;-65
2021/09/04 02:46:22;;;;;;;5.90;1.90;;;;;;;12.95;63.38;99009.88;27033;1227;3026607;-65
2021/09/04 02:48:51;;;;;;;10.20;2.80;;;;;;;13.12;62.45;99009.75;26935;1221;3026474;-64
2021/09/04 02:51:28;;;;;;;3.80;2.10;;;;;;;12.91;63.08;99006.14;26914;1228;3048979;-66
2021/09/04 02:54:01;;;;;;;8.40;2.50;;;;;;;12.64;64.05;99004.83;26993;1221;3026764;-66
2021/09/04 02:56:30;;;;;;;5.40;2.40;;;;;;;12.61;63.54;98998.59;26915;1222;3026287;-68
2021/09/04 02:59:00;;;;;;;4.40;2.60;;;;;;;12.39;64.65;98999.89;26913;1225;3049467;-65
2021/09/04 03:01:30;;;;;;;6.30;2.60;;;;;;;12.31;64.90;99008.96;26917;1225;3027688;-64
2021/09/04 03:04:02;;;;;;;6.40;2.40;;;;;;;12.30;65.02;99006.92;26941;1222;3027349;-67
2021/09/04 03:06:31;;;;;;;7.20;2.00;;;;;;;12.25;65.60;99009.86;26972;1220;3026619;-65
2021/09/04 03:09:02;;;;;;;5.00;2.20;;;;;;;13.15;63.40;98998.48;26989;1225;3053035;-66
2021/09/04 03:11:32;;;;;;;4.70;2.10;;;;;;;13.22;62.39;99000.75;26967;1221;3027016;-69
2021/09/04 03:14:01;;;;;;;5.80;2.40;;;;;;;13.00;62.79;99002.92;26908;1224;3051035;-65
2021/09/04 03:16:31;;;;;;;7.00;2.50;;;;;;;12.76;63.62;99002.16;26922;1221;3026583;-65
2021/09/04 03:19:01;;;;;;;6.30;2.30;;;;;;;12.67;63.92;99003.25;26984;1224;3027914;-63
2021/09/04 03:21:30;;;;;;;5.70;3.00;;;;;;;12.32;65.23;99004.67;26930;1220;3026172;-63
2021/09/04 03:23:59;;;;;;;7.90;2.80;;;;;;;12.13;65.84;99005.55;26967;1224;3026039;-67
2021/09/04 03:26:28;;;;;;;8.00;2.70;;;;;;;12.05;66.14;99007.34;26890;1225;3050424;-65
2021/09/04 03:28:59;;;;;;;5.10;2.90;;;;;;;11.97;66.49;99008.23;26958;1227;3026488;-64
2021/09/04 03:31:28;;;;;;;3.70;2.20;;;;;;;12.12;65.90;99005.74;26984;1220;3025771;-64
2021/09/04 03:33:59;;;;;;;5.70;2.60;;;;;;;12.70;64.60;99010.73;26974;1222;3049410;-63
2021/09/04 03:36:28;;;;;;;5.80;3.20;;;;;;;12.82;63.94;99010.51;26858;1228;3026380;-65
2021/09/04 03:38:57;;;;;;;12.60;2.80;;;;;;;12.92;63.39;99013.61;26937;1224;3052874;-66
2021/09/04 03:41:27;;;;;;;7.40;3.10;;;;;;;12.91;63.08;99018.94;26923;1222;3027197;-63
2021/09/04 03:44:00;;;;;;;5.40;2.80;;;;;;;12.66;63.85;99022.95;26969;1222;3026849;-64
2021/09/04 03:46:30;;;;;;;9.00;2.90;;;;;;;12.42;64.80;99026.66;26999;1222;3026083;-65
2021/09/04 03:49:00;;;;;;;8.90;3.00;;;;;;;12.37;64.92;99028.70;26895;1224;3026360;-64
2021/09/04 03:51:31;;;;;;;7.00;2.90;;;;;;;12.27;65.16;99026.58;26959;1221;3069828;-64
2021/09/04 03:54:01;;;;;;;6.10;2.80;;;;;;;12.07;66.29;99026.64;26986;1221;3026941;-66
2021/09/04 03:56:32;;;;;;;12.20;2.90;;;;;;;12.59;65.41;99028.78;26956;1221;3025530;-65
2021/09/04 03:59:01;;;;;;;8.10;3.00;;;;;;;12.92;64.10;99030.67;26904;1221;3025966;-63
2021/09/04 04:01:31;;;;;;;8.70;3.20;;;;;;;12.98;63.67;99029.10;26921;1221;3048423;-65
2021/09/04 04:04:00;;;;;;;6.70;2.80;;;;;;;13.06;63.08;99032.20;26923;1222;3026961;-64
2021/09/04 04:06:29;;;;;;;6.70;3.30;;;;;;;12.70;64.32;99026.39;26910;1224;3026230;-66
2021/09/04 04:08:59;;;;;;;5.70;3.40;;;;;;;12.59;64.76;99027.92;26936;1226;3026378;-68
2021/09/04 04:11:27;;;;;;;6.50;3.10;;;;;;;12.61;64.26;99033.75;26929;1222;3051658;-66
2021/09/04 04:13:58;;;;;;;6.40;2.90;;;;;;;12.59;64.35;99034.05;27011;1224;3027139;-68
2021/09/04 04:16:28;;;;;;;9.60;3.50;;;;;;;12.44;65.14;99036.23;26956;1220;3026223;-64
2021/09/04 04:18:57;;;;;;;7.40;2.80;;;;;;;12.45;65.52;99040.39;26945;1220;3027133;-68
2021/09/04 04:21:26;;;;;;;7.70;2.50;;;;;;;12.94;63.90;99033.85;26973;1223;3026153;-65
2021/09/04 04:23:54;;;;;;;6.70;3.00;;;;;;;13.36;62.81;99027.41;26933;1221;3055304;-63
2021/09/04 04:26:25;;;;;;;7.20;2.10;;;;;;;13.39;62.09;99026.30;26948;1225;3025857;-64
2021/09/04 04:28:54;;;;;;;7.90;3.10;;;;;;;13.22;62.51;99034.48;26982;1221;3026300;-66
2021/09/04 04:31:23;;;;;;;6.30;3.20;;;;;;;13.20;62.62;99044.30;26950;1225;3058137;-64
2021/09/04 04:33:53;;;;;;;7.70;2.80;;;;;;;13.02;63.36;99045.36;26931;1221;3026619;-69
2021/09/04 04:36:22;;;;;;;9.40;3.00;;;;;;;12.95;63.33;99044.13;26964;1220;3050056;-65
2021/09/04 04:38:52;;;;;;;8.50;3.50;;;;;;;12.91;63.75;99054.66;26911;1224;3026758;-64
2021/09/04 04:41:22;;;;;;;5.50;2.60;;;;;;;12.83;64.09;99055.41;26976;1220;3026519;-65
2021/09/04 04:43:52;;;;;;;11.90;3.30;;;;;;;12.87;63.64;99052.14;27022;1225;3026481;-66
2021/09/04 04:46:22;;;;;;;5.40;2.60;;;;;;;12.86;64.18;99052.39;26970;1219;3026429;-64
2021/09/04 04:48:51;;;;;;;6.10;2.70;;;;;;;13.82;61.85;99042.95;26935;1221;3026305;-66
2021/09/04 04:51:21;;;;;;;12.00;3.40;;;;;;;14.43;59.47;99049.79;27014;1220;3054662;-67
2021/09/04 04:53:53;;;;;;;5.90;2.80;;;;;;;14.35;59.51;99051.16;26974;1221;3026368;-67
2021/09/04 04:56:22;;;;;;;8.00;3.00;;;;;;;14.19;59.80;99049.15;26947;1224;3028873;-65
2021/09/04 04:58:52;;;;;;;6.40;2.60;;;;;;;14.06;60.03;99059.55;27006;1224;3054062;-69
2021/09/04 05:01:21;;;;;;;11.10;3.50;;;;;;;13.89;60.47;99059.52;26945;1225;3028205;-64
2021/09/04 05:03:51;;;;;;;9.40;3.30;;;;;;;13.85;60.90;99049.73;26943;1225;3051664;-65
2021/09/04 05:06:20;;;;;;;8.80;3.10;;;;;;;13.79;60.92;99051.11;26966;1225;3026497;-66
2021/09/04 05:08:51;;;;;;;17.20;3.10;;;;;;;13.70;61.52;99048.84;26987;1224;3054624;-64
2021/09/04 05:11:20;;;;;;;5.90;2.90;;;;;;;13.68;61.59;99047.42;26984;1222;3025858;-63
2021/09/04 05:13:50;;;;;;;5.90;2.80;;;;;;;13.69;61.61;99054.20;26984;1221;3026498;-64
2021/09/04 05:16:19;;;;;;;7.50;3.10;;;;;;;13.76;61.24;99053.67;26953;1221;3026426;-66
2021/09/04 05:18:49;;;;;;;10.70;3.00;;;;;;;13.73;61.36;99051.29;26916;1219;3051541;-65
2021/09/04 05:21:18;;;;;;;6.30;3.30;;;;;;;13.67;61.95;99049.28;26934;1219;3026475;-65
2021/09/04 05:23:48;;;;;;;7.70;3.40;;;;;;;13.76;61.65;99052.77;27028;1219;3026623;-65
2021/09/04 05:26:18;;;;;;;8.60;2.80;;;;;;;13.91;61.45;99056.38;26956;1222;3026887;-66
2021/09/04 05:28:47;;;;;;;4.80;3.10;;;;;;;13.89;61.57;99055.05;26977;1221;3026667;-67
2021/09/04 05:31:16;;;;;;;5.10;2.60;;;;;;;13.94;61.49;99057.83;26910;1222;3049985;-64
2021/09/04 05:33:45;;;;;;;7.90;2.70;;;;;;;14.01;61.28;99053.95;26916;1222;3026998;-64
2021/09/04 05:36:14;;;;;;;8.10;3.00;;;;;;;14.03;61.18;99055.22;26909;1222;3025904;-66
2021/09/04 05:38:46;;;;;;;9.80;3.30;;;;;;;14.14;61.09;99054.50;26964;1221;3052107;-65
2021/09/04 05:41:15;;;;;;;10.50;3.20;;;;;;;14.20;60.88;99054.64;26911;1220;3026616;-68
2021/09/04 05:43:44;;;;;;;7.50;2.90;;;;;;;14.25;60.45;99049.70;26989;1222;3052955;-68
2021/09/04 05:46:13;;;;;;;9.50;3.00;;;;;;;14.29;60.84;99054.84;26956;1221;3027032;-67
2021/09/04 05:48:42;;;;;;;7.40;3.20;;;;;;;14.25;60.75;99060.23;26927;1222;3052259;-64
2021/09/04 05:51:11;;;;;;;6.00;2.70;;;;;;;14.29;60.90;99056.10;26901;1221;3025899;-66
2021/09/04 05:53:40;;;;;;;6.40;2.90;;;;;;;14.37;60.58;99057.84;26974;1228;3054853;-65
2021/09/04 05:56:09;;;;;;;9.00;3.30;;;;;;;14.50;60.54;99057.13;26920;1222;3027899;-63
2021/09/04 05:58:39;;;;;;;7.20;2.70;;;;;;;14.64;60.27;99060.64;26958;1221;3026721;-65
2021/09/04 06:01:09;;;;;;;10.40;3.20;;;;;;;14.79;59.45;99053.39;26941;1222;3055449;-68
2021/09/04 06:03:39;;;;;;;16.00;3.30;;;;;;;14.90;59.67;99052.94;27005;1223;3026817;-63
2021/09/04 06:06:08;;;;;;;10.80;3.30;;;;;;;15.04;59.34;99051.75;27019;1222;3028017;-65
2021/09/04 06:08:37;;;;;;;7.10;2.90;;;;;;;15.14;59.24;99048.08;26889;1222;3057854;-66
2021/09/04 06:11:05;;;;;;;8.40;2.50;;;;;;;15.31;58.48;99047.14;26918;1220;3026425;-62
2021/09/04 06:13:37;;;;;;;4.50;2.50;;;;;;;15.47;58.37;99043.27;26974;1222;3054524;-65
2021/09/04 06:16:06;;;;;;;6.60;2.90;;;;;;;15.59;57.91;99035.36;26939;1221;3026169;-64
2021/09/04 06:18:44;;;;;;;5.70;2.50;;;;;;;15.71;57.53;99046.33;26918;1221;3054432;-65
2021/09/04 06:21:13;;;;;;;10.20;3.50;;;;;;;15.84;57.09;99053.45;26967;1222;3026388;-67
2021/09/04 06:23:42;;;;;;;6.50;2.50;;;;;;;15.95;56.70;99051.77;26962;1222;3050949;-65
2021/09/04 06:26:11;;;;;;;4.90;2.40;;;;;;;16.01;56.08;99045.05;26912;1220;3025965;-67
2021/09/04 06:28:40;;;;;;;6.50;2.40;;;;;;;16.15;55.83;99047.90;26965;1221;3066203;-66
2021/09/04 06:31:09;;;;;;;15.30;3.50;;;;;;;16.24;55.59;99041.44;26947;1222;3026269;-65
2021/09/04 06:33:39;;;;;;;6.40;2.60;;;;;;;16.38;55.27;99051.33;26937;1221;3053348;-66
2021/09/04 06:36:08;;;;;;;6.30;2.50;;;;;;;16.54;54.89;99050.92;26912;1221;3026334;-64
2021/09/04 06:38:37;;;;;;;6.00;2.60;;;;;;;16.65;54.81;99058.19;26930;1221;3054761;-64
2021/09/04 06:41:05;;;;;;;5.70;2.80;;;;;;;16.70;54.49;99054.39;26933;1222;3026417;-67
2021/09/04 06:43:34;;;;;;;9.60;2.80;;;;;;;16.72;54.11;99051.17;26995;1221;3048973;-63
2021/09/04 06:46:03;;;;;;;6.80;3.00;;;;;;;16.85;54.01;99048.19;26980;1219;3026410;-63
2021/09/04 06:48:33;;;;;;;9.40;3.20;;;;;;;16.91;53.92;99052.80;26968;1219;3056004;-67
2021/09/04 06:51:02;;;;;;;10.90;2.60;;;;;;;16.95;53.87;99056.35;26872;1222;3028744;-64
2021/09/04 06:53:31;;;;;;;6.20;2.30;;;;;;;17.05;53.92;99060.70;26975;1222;3051445;-63
2021/09/04 06:56:00;;;;;;;7.70;2.60;;;;;;;17.20;53.32;99057.85;26946;1221;3026028;-67
2021/09/04 06:58:29;;;;;;;5.50;2.50;;;;;;;17.30;53.44;99051.83;27002;1221;3027090;-67
2021/09/04 07:00:58;;;;;;;8.50;2.80;;;;;;;17.39;53.27;99051.31;26969;1222;3051318;-66
2021/09/04 07:03:27;;;;;;;4.50;2.70;;;;;;;17.52;52.86;99058.41;26955;1222;3027019;-64
2021/09/04 07:05:56;;;;;;;7.60;2.70;;;;;;;17.52;52.94;99054.52;26957;1221;3051149;-66
2021/09/04 07:08:25;;;;;;;7.90;3.00;;;;;;;17.66;52.93;99054.73;26903;1221;3027004;-67
2021/09/04 07:10:54;;;;;;;4.70;2.50;;;;;;;17.74;52.79;99048.64;26944;1221;3050395;-67
2021/09/04 07:13:23;;;;;;;9.60;2.60;;;;;;;17.87;52.55;99043.11;27019;1220;3026511;-66
2021/09/04 07:15:52;;;;;;;7.00;2.50;;;;;;;18.04;52.25;99040.34;27041;1222;3067793;-68
2021/09/04 07:18:21;;;;;;;7.40;2.90;;;;;;;18.16;51.73;99038.20;26974;1220;3026493;-68
2021/09/04 07:20:52;;;;;;;8.70;2.40;;;;;;;18.21;51.76;99040.39;26953;1221;3053140;-68
2021/09/04 07:23:20;;;;;;;6.90;2.80;;;;;;;18.31;51.51;99031.98;26935;1225;3026827;-67
2021/09/04 07:25:49;;;;;;;7.60;2.50;;;;;;;18.37;51.93;99029.53;26935;1221;3052444;-71
2021/09/04 07:28:18;;;;;;;6.60;2.60;;;;;;;18.50;51.56;99029.88;26932;1222;3026217;-67
2021/09/04 07:30:48;;;;;;;4.60;2.40;;;;;;;18.63;50.94;99024.66;26987;1220;3048451;-65
2021/09/04 07:33:17;;;;;;;6.10;2.40;;;;;;;18.68;51.06;99036.59;26957;1223;3026439;-65
2021/09/04 07:35:47;;;;;;;3.60;2.30;;;;;;;18.77;50.41;99030.54;27142;1221;3026511;-65
2021/09/04 07:38:15;;;;;;;6.70;2.30;;;;;;;18.78;50.20;99039.13;27105;1221;3048751;-65
2021/09/04 07:40:45;;;;;;;4.80;2.10;;;;;;;18.77;50.02;99037.10;27777;1221;3026589;-66
2021/09/04 07:43:14;;;;;;;4.70;2.60;;;;;;;18.85;49.76;99044.63;27791;1220;3056150;-65
2021/09/04 07:45:43;;;;;;;6.50;2.40;;;;;;;18.88;49.58;99024.81;27468;1220;3026272;-67
2021/09/04 07:48:12;;;;;;;6.80;2.70;;;;;;;18.99;49.55;99017.48;27568;1225;3026553;-69
2021/09/04 07:50:42;;;;;;;8.60;2.60;;;;;;;19.01;49.82;99016.43;27739;1221;3055619;-67
2021/09/04 07:53:11;;;;;;;6.20;2.80;;;;;;;19.00;49.74;99021.69;27784;1221;3025529;-67
2021/09/04 07:55:40;;;;;;;5.70;2.40;;;;;;;19.14;49.10;99019.16;27044;1221;3051140;-68
2021/09/04 07:58:09;;;;;;;5.70;2.40;;;;;;;19.16;49.01;99014.84;26928;1221;3025964;-66
2021/09/04 08:00:38;;;;;;;5.60;2.30;;;;;;;19.18;49.14;99017.72;26906;1222;3053477;-65
2021/09/04 08:03:07;;;;;;;4.30;2.40;;;;;;;19.28;48.63;99016.69;26984;1222;3026431;-63
2021/09/04 08:05:36;;;;;;;5.40;2.80;;;;;;;19.30;49.26;99012.05;26955;1220;3047902;-67
2021/09/04 08:08:06;;;;;;;4.10;2.60;;;;;;;19.37;48.90;99008.94;26944;1227;3026665;-65
2021/09/04 08:10:34;;;;;;;6.40;2.30;;;;;;;19.54;48.75;99008.95;26915;1219;3026242;-69
2021/09/04 08:13:03;;;;;;;4.30;2.30;;;;;;;19.52;48.48;99006.13;26927;1222;3047774;-66
2021/09/04 08:15:32;;;;;;;5.10;3.10;;;;;;;19.64;48.32;99001.89;27018;1220;3026371;-68
2021/09/04 08:18:06;;;;;;;8.10;3.40;;;;;;;19.73;48.09;99000.15;26970;1221;3071146;-67
2021/09/04 08:20:35;;;;;;;5.30;2.60;;;;;;;19.91;48.09;98998.62;26950;1221;3027691;-66
2021/09/04 08:23:07;;;;;;;9.10;2.80;;;;;;;19.96;47.32;98998.68;27040;1221;3050575;-65
2021/09/04 08:25:36;;;;;;;6.80;2.90;;;;;;;20.00;47.96;99000.91;26947;1222;3025704;-63
2021/09/04 08:28:07;;;;;;;8.80;3.40;;;;;;;20.03;47.23;99000.42;26944;1222;3026294;-65
2021/09/04 08:30:36;;;;;;;5.10;2.90;;;;;;;19.89;47.35;99002.50;26908;1222;3050594;-65
2021/09/04 08:33:06;;;;;;;5.30;3.30;;;;;;;19.97;47.55;98999.64;26945;1227;3026567;-68
2021/09/04 08:35:35;;;;;;;5.50;3.40;;;;;;;20.21;47.48;98995.63;26926;1228;3026193;-63
2021/09/04 08:38:06;;;;;;;11.20;3.10;;;;;;;20.39;46.44;98997.46;26973;1220;3051040;-63
2021/09/04 08:40:42;;;;;;;6.10;3.30;;;;;;;20.42;46.58;98995.72;26958;1222;3026314;-66
2021/09/04 08:43:11;;;;;;;7.30;3.20;;;;;;;20.52;46.54;99001.02;26942;1220;3048596;-65
2021/09/04 08:45:40;;;;;;;6.20;3.30;;;;;;;20.53;45.82;99000.95;26964;1221;3026521;-64
2021/09/04 08:48:09;;;;;;;13.10;6.10;;;;;;;20.30;46.90;98992.33;26943;1221;3025926;-68
2021/09/04 08:50:38;;;;;;;11.40;5.00;;;;;;;19.99;48.47;98993.98;26957;1222;3048716;-66
2021/09/04 08:53:07;;;;;;;10.80;5.80;;;;;;;20.04;48.67;99000.29;26929;1228;3026574;-63
2021/09/04 08:55:37;;;;;;;14.70;7.00;;;;;;;19.96;48.80;98993.89;26926;1222;3069308;-66
2021/09/04 08:58:06;;;;;;;14.70;6.00;;;;;;;20.00;49.35;98988.88;26922;1220;3027122;-65
2021/09/04 09:00:38;;;;;;;13.50;6.10;;;;;;;20.23;48.58;98994.16;26978;1221;3054182;-66
2021/09/04 09:03:21;;;;;;;11.10;5.50;;;;;;;20.03;48.65;98991.77;26967;1221;3027294;-67
2021/09/04 09:05:50;;;;;;;11.00;5.70;;;;;;;19.95;48.85;98989.33;26954;1220;3051454;-66
2021/09/04 09:08:25;;;;;;;9.60;5.10;;;;;;;19.83;49.02;98986.36;27006;1222;3026325;-67
2021/09/04 09:11:14;;;;;;;20.60;5.30;;;;;;;19.89;49.14;98979.31;26931;1222;3053983;-67
2021/09/04 09:13:47;;;;;;;10.10;4.60;;;;;;;20.16;48.44;98980.00;26966;1219;3026995;-67
2021/09/04 09:16:18;;;;;;;8.30;4.70;;;;;;;20.09;48.02;98979.73;26931;1220;3054954;-66
2021/09/04 09:19:03;;;;;;;8.30;4.80;;;;;;;20.24;47.65;98976.67;26967;1220;3050811;-67
2021/09/04 09:21:39;;;;;;;8.80;4.80;;;;;;;20.24;47.30;98976.82;27022;1227;3026040;-67
2021/09/04 09:24:17;;;;;;;12.10;5.10;;;;;;;20.45;47.53;98976.45;26927;1222;3051185;-64
2021/09/04 09:27:01;;;;;;;11.70;5.40;;;;;;;20.54;47.65;98974.33;26950;1220;3054409;-67
2021/09/04 09:29:32;;;;;;;10.80;5.60;;;;;;;20.47;47.57;98985.25;26896;1221;3051007;-65
2021/09/04 09:32:09;;;;;;;14.00;6.30;;;;;;;20.29;47.77;98984.48;26938;1224;3029329;-65
2021/09/04 09:37:37;;;;;;;14.20;6.60;;;;;;;20.52;47.84;98985.52;34018;1223;3027391;-63
2021/09/04 09:40:07;;;;;;;11.50;6.90;;;;;;;20.72;46.79;98990.80;27063;1228;3026685;-65
2021/09/04 09:42:45;;;;;;;9.30;5.30;;;;;;;20.73;46.35;98982.30;26901;1225;3026091;-65
2021/09/04 09:45:15;;;;;;;9.80;5.70;;;;;;;20.54;46.83;98986.33;26938;1228;3055634;-65
2021/09/04 09:47:51;;;;;;;9.10;5.70;;;;;;;20.44;47.06;98985.71;26852;1226;3026640;-66
2021/09/04 09:50:20;;;;;;;12.60;6.30;;;;;;;20.28;47.91;98991.70;26868;1231;3051124;-69
2021/09/04 09:52:49;;;;;;;13.10;6.40;;;;;;;20.14;48.33;98994.23;26885;1224;3026545;-66
2021/09/04 09:55:18;;;;;;;11.40;7.20;;;;;;;20.30;48.27;98990.46;26848;1223;3051118;-63
2021/09/04 09:57:47;;;;;;;13.10;6.90;;;;;;;20.48;48.06;99006.06;26883;1228;3026192;-64
2021/09/04 10:00:16;;;;;;;13.00;6.60;;;;;;;20.56;47.64;99004.64;26874;1232;3057972;-68
2021/09/04 10:02:46;;;;;;;6.60;4.30;;;;;;;20.46;48.19;99018.69;26885;1232;3026530;-65
2021/09/04 10:05:15;;;;;;;7.00;3.80;;;;;;;20.24;49.62;99029.86;26878;1228;3026440;-66
2021/09/04 10:07:47;;;;;;;9.20;4.20;;;;;;;19.86;51.09;99030.91;26937;1228;3027303;-66
2021/09/04 10:10:16;;;;;;;9.90;4.30;;;;;;;19.88;51.35;99030.09;26857;1231;3049972;-64
2021/09/04 10:12:51;;;;;;;9.80;4.50;;;;;;;20.05;51.14;99039.88;26875;1228;3052958;-66
2021/09/04 10:15:21;;;;;;;11.30;5.40;;;;;;;19.82;51.88;99037.83;26992;1230;3025789;-65
2021/09/04 10:18:10;;;;;;;10.30;4.70;;;;;;;19.76;52.23;99028.52;26893;1228;3053694;-66
2021/09/04 10:21:06;;;;;;;7.00;4.30;;;;;;;19.85;51.57;99034.02;26892;1231;3056088;-63
2021/09/04 10:23:37;;;;;;;13.20;5.30;;;;;;;19.56;52.17;99033.11;26859;1225;3051288;-64
2021/09/04 10:26:21;;;;;;;16.20;4.60;;;;;;;19.33;52.69;99044.14;26912;1228;3025972;-64
2021/09/04 10:29:11;;;;;;;17.70;5.30;;;;;;;19.11;53.12;99060.41;26934;1230;3048910;-65
2021/09/04 10:31:56;;;;;;;12.80;5.10;;;;;;;18.60;54.96;99058.16;26875;1223;3054917;-65
2021/09/04 10:34:27;;;;;;;12.50;4.80;;;;;;;18.55;55.01;99065.17;26866;1228;3052071;-66
2021/09/04 10:37:13;;;;;;;11.60;4.70;;;;;;;18.64;54.78;99059.15;26920;1227;3026177;-63
2021/09/04 10:39:49;;;;;;;8.30;4.60;;;;;;;18.80;54.61;99067.09;26896;1230;3049668;-65
2021/09/04 10:42:23;;;;;;;13.10;5.00;;;;;;;18.66;54.92;99073.30;26897;1224;3052341;-63
2021/09/04 10:44:56;;;;;;;10.30;4.90;;;;;;;18.46;55.43;99070.69;26937;1221;3050165;-65
2021/09/04 10:47:25;;;;;;;12.20;4.60;;;;;;;18.64;55.18;99078.98;27029;1230;3028206;-64
2021/09/04 10:49:56;;;;;;;8.60;4.30;;;;;;;18.13;56.38;99096.30;26901;1223;3025768;-65
2021/09/04 10:52:56;;;;;;;13.90;5.20;;;;;;;17.57;58.33;99106.08;26927;1228;3028904;-65
2021/09/04 10:55:29;;;;;;;9.80;4.40;;;;;;;17.44;59.72;99098.29;26994;1223;3052958;-62
2021/09/04 10:58:15;;;;;;;10.10;4.90;;;;;;;17.15;60.66;99099.25;27010;1221;3025692;-68
2021/09/04 11:00:44;;;;;;;9.70;5.50;;;;;;;17.08;61.24;99096.14;26937;1225;3049499;-66
2021/09/04 11:03:20;;;;;;;14.70;5.70;;;;;;;17.04;61.60;99097.63;27004;1225;3025506;-67
2021/09/04 11:05:57;;;;;;;9.50;5.50;;;;;;;16.77;62.31;99096.38;26951;1225;3049173;-65
2021/09/04 11:08:33;;;;;;;11.30;4.90;;;;;;;16.74;62.73;99095.23;26911;1225;3068941;-66
2021/09/04 11:11:26;;;;;;;9.00;4.90;;;;;;;16.57;63.20;99109.98;26953;1224;3048690;-64
2021/09/04 11:13:59;;;;;;;13.30;4.70;;;;;;;16.36;64.11;99111.18;26932;1222;3052035;-64
2021/09/04 11:16:34;;;;;;;8.10;4.50;;;;;;;16.29;64.44;99110.30;26896;1223;3028780;-63
2021/09/04 11:19:21;;;;;;;9.50;5.30;;;;;;;16.18;65.15;99109.64;26976;1224;3056354;-66
2021/09/04 11:21:53;;;;;;;7.40;4.90;;;;;;;16.24;65.30;99109.42;26919;1225;3049418;-63
2021/09/04 11:24:33;;;;;;;10.20;4.90;;;;;;;16.93;63.27;99112.16;26956;1225;3025951;-66
2021/09/04 11:27:03;;;;;;;10.70;4.90;;;;;;;17.25;61.96;99109.48;26954;1221;3052383;-65
2021/09/04 11:29:43;;;;;;;11.30;5.10;;;;;;;17.24;61.88;99104.25;26974;1225;3028471;-65
2021/09/04 11:32:12;;;;;;;11.10;6.40;;;;;;;17.02;62.23;99097.92;26926;1221;3049065;-63
2021/09/04 11:34:46;;;;;;;16.20;6.90;;;;;;;16.97;62.04;99096.80;26929;1221;3026795;-63